Time;durP1;ratioP1;P1;durP2;ratioP2;P2;SDS_P1;SDS_P2;PMS_P1;PMS_P2;Temp;Humidity;BMP_temperature;BMP_pressure;BME280_temperature;BME280_humidity;BME280_pressure;Samples;Min_cycle;Max_cycle;Signal;HPM_P1;HPM_P2
2022/04/14 00:01:20;;;;;;;23.25;14.40;;;10.30;99.90;;;;;;4935791;29;20495;-77
2022/04/14 00:03:45;;;;;;;25.48;15.43;;;10.30;99.90;;;;;;4935729;29;20059;-77
2022/04/14 00:06:11;;;;;;;22.23;13.93;;;10.30;99.90;;;;;;4935551;29;20043;-77
2022/04/14 00:08:37;;;;;;;23.95;14.63;;;10.30;99.90;;;;;;4935617;29;20051;-77
2022/04/14 00:11:02;;;;;;;25.85;15.02;;;10.20;99.90;;;;;;4935503;29;20055;-78
2022/04/14 00:13:28;;;;;;;29.58;15.52;;;10.20;99.90;;;;;;4935608;29;20044;-77
2022/04/14 00:15:53;;;;;;;26.63;15.10;;;10.20;99.90;;;;;;4936869;29;20099;-77
2022/04/14 00:18:19;;;;;;;22.40;15.38;;;10.20;99.90;;;;;;4919687;29;20468;-77
2022/04/14 00:20:44;;;;;;;24.90;15.40;;;10.10;99.90;;;;;;4936741;29;20491;-77
2022/04/14 00:23:10;;;;;;;25.15;14.82;;;10.10;99.90;;;;;;4936694;29;20131;-77
2022/04/14 00:25:36;;;;;;;25.52;17.15;;;10.00;99.90;;;;;;4934974;29;20065;-77
2022/04/14 00:28:02;;;;;;;27.67;17.05;;;10.00;99.90;;;;;;4936484;29;20127;-77
2022/04/14 00:30:28;;;;;;;34.05;17.60;;;10.00;99.90;;;;;;4919509;29;20452;-77
2022/04/14 00:32:54;;;;;;;30.63;17.45;;;10.00;99.90;;;;;;4936583;29;20047;-77
2022/04/14 00:35:19;;;;;;;31.30;18.00;;;9.90;99.90;;;;;;4936035;29;20048;-77
2022/04/14 00:37:45;;;;;;;31.33;18.45;;;9.90;99.90;;;;;;4936592;29;20403;-77
2022/04/14 00:40:12;;;;;;;29.88;16.77;;;9.90;99.90;;;;;;4936410;29;20083;-77
2022/04/14 00:42:38;;;;;;;28.00;19.80;;;9.80;99.90;;;;;;4936446;29;20135;-78
2022/04/14 00:45:03;;;;;;;30.02;18.85;;;9.80;99.90;;;;;;4936471;29;20683;-77
2022/04/14 00:47:29;;;;;;;32.35;19.50;;;9.80;99.90;;;;;;4934988;29;20500;-77
2022/04/14 00:49:55;;;;;;;35.38;19.55;;;9.80;99.90;;;;;;4919413;29;20130;-77
2022/04/14 00:52:22;;;;;;;36.88;20.10;;;9.70;99.90;;;;;;4936672;29;20051;-78
2022/04/14 00:54:48;;;;;;;36.83;21.10;;;9.70;99.90;;;;;;4935238;29;20052;-78
2022/04/14 00:57:14;;;;;;;34.13;21.70;;;9.70;99.90;;;;;;4935225;29;20158;-77
2022/04/14 00:59:41;;;;;;;39.28;22.73;;;9.70;99.90;;;;;;4935011;29;20567;-78
2022/04/14 01:02:08;;;;;;;38.55;22.70;;;9.60;99.90;;;;;;4898771;29;1075203;-78
2022/04/14 01:04:34;;;;;;;35.47;21.10;;;9.60;99.90;;;;;;4935624;29;20064;-77
2022/04/14 01:07:00;;;;;;;36.85;22.80;;;9.60;99.90;;;;;;4935499;29;20514;-77
2022/04/14 01:09:28;;;;;;;32.28;21.13;;;9.50;99.90;;;;;;4919782;29;20051;-77
2022/04/14 01:11:55;;;;;;;36.17;21.67;;;9.50;99.90;;;;;;4935319;29;20094;-77
2022/04/14 01:14:30;;;;;;;33.40;22.27;;;9.40;99.90;;;;;;4935696;29;20200;-77
2022/04/14 01:17:02;;;;;;;39.50;23.38;;;9.40;99.90;;;;;;4935277;29;20056;-77
2022/04/14 01:19:28;;;;;;;41.22;22.58;;;9.40;99.90;;;;;;4935153;29;20503;-77
2022/04/14 01:22:18;;;;;;;37.05;23.42;;;9.40;99.90;;;;;;4935546;29;20059;-77
2022/04/14 01:24:44;;;;;;;36.90;22.92;;;9.30;99.90;;;;;;4935233;29;20047;-77
2022/04/14 01:27:09;;;;;;;40.67;22.70;;;9.20;99.90;;;;;;4936547;29;20086;-77
2022/04/14 01:29:36;;;;;;;39.13;23.08;;;9.20;99.90;;;;;;4935154;29;20075;-77
2022/04/14 01:32:02;;;;;;;37.85;24.27;;;9.10;99.90;;;;;;4919311;29;20556;-77
2022/04/14 01:34:32;;;;;;;34.55;22.25;;;9.10;99.90;;;;;;4918912;29;20054;-77
2022/04/14 01:37:01;;;;;;;39.20;24.67;;;9.00;99.90;;;;;;4935660;29;20514;-77
2022/04/14 01:39:27;;;;;;;39.53;23.88;;;9.10;99.90;;;;;;4935061;29;20051;-77
2022/04/14 01:41:53;;;;;;;41.55;25.20;;;9.00;99.90;;;;;;4936410;29;20052;-77
2022/04/14 01:44:19;;;;;;;37.72;23.73;;;8.90;99.90;;;;;;4936315;29;20408;-77
2022/04/14 01:46:45;;;;;;;41.10;24.88;;;8.90;99.90;;;;;;4936413;29;20047;-78
2022/04/14 01:49:11;;;;;;;39.58;25.33;;;8.90;99.90;;;;;;4936662;29;20111;-77
2022/04/14 01:51:38;;;;;;;46.13;25.98;;;8.90;99.90;;;;;;4935085;29;20483;-77
2022/04/14 01:54:04;;;;;;;41.97;25.67;;;8.80;99.90;;;;;;4935053;29;20142;-77
2022/04/14 01:56:30;;;;;;;41.45;26.42;;;8.80;99.90;;;;;;4919128;29;20046;-77
2022/04/14 01:58:56;;;;;;;41.60;27.13;;;8.80;99.90;;;;;;4934822;29;20043;-77
2022/04/14 02:01:22;;;;;;;42.70;24.75;;;8.80;99.90;;;;;;4934775;29;20115;-77
2022/04/14 02:03:48;;;;;;;41.47;25.95;;;8.80;99.90;;;;;;4934949;29;20400;-77
2022/04/14 02:06:14;;;;;;;40.70;25.95;;;8.80;99.90;;;;;;4935134;29;20080;-77
2022/04/14 02:08:40;;;;;;;46.17;26.25;;;8.80;99.90;;;;;;4934929;29;20059;-77
2022/04/14 02:11:10;;;;;;;42.38;25.85;;;8.80;99.90;;;;;;4935850;29;20048;-77
2022/04/14 02:13:36;;;;;;;42.60;25.23;;;8.70;99.90;;;;;;4934705;29;20051;-77
2022/04/14 02:16:02;;;;;;;43.22;25.67;;;8.60;99.90;;;;;;4934817;29;20051;-77
2022/04/14 02:18:28;;;;;;;40.75;25.08;;;8.60;99.90;;;;;;4919337;29;20058;-77
2022/04/14 02:20:54;;;;;;;36.75;25.08;;;8.60;99.90;;;;;;4934717;29;20077;-77
2022/04/14 02:23:19;;;;;;;40.80;25.85;;;8.50;99.90;;;;;;4936009;29;20059;-77
2022/04/14 02:25:45;;;;;;;46.65;27.45;;;8.50;99.90;;;;;;4934863;29;20047;-77
2022/04/14 02:28:13;;;;;;;44.50;27.20;;;8.50;99.90;;;;;;4934922;29;20043;-77
2022/04/14 02:30:39;;;;;;;44.90;26.83;;;8.50;99.90;;;;;;4934782;29;20052;-77
2022/04/14 02:33:05;;;;;;;49.75;28.05;;;8.40;99.90;;;;;;4934686;29;20376;-77
2022/04/14 02:35:30;;;;;;;48.85;28.80;;;8.40;99.90;;;;;;4934753;29;20040;-77
2022/04/14 02:37:56;;;;;;;46.15;26.65;;;8.40;99.90;;;;;;4934619;29;20048;-77
2022/04/14 02:40:24;;;;;;;47.58;28.15;;;8.40;99.90;;;;;;4935855;29;20043;-77
2022/04/14 02:42:59;;;;;;;48.88;27.83;;;8.40;99.90;;;;;;4934308;29;20076;-77
2022/04/14 02:45:26;;;;;;;51.88;29.80;;;8.30;99.90;;;;;;4935847;29;20076;-77
2022/04/14 02:47:52;;;;;;;45.80;27.27;;;8.30;99.90;;;;;;4935950;29;20484;-77
2022/04/14 02:50:20;;;;;;;49.53;29.52;;;8.30;99.90;;;;;;4938217;29;20127;-77
2022/04/14 02:52:46;;;;;;;48.78;29.13;;;8.40;99.90;;;;;;4937825;29;20484;-77
2022/04/14 02:55:12;;;;;;;50.08;29.45;;;8.30;99.90;;;;;;4937780;29;20044;-77
2022/04/14 02:57:38;;;;;;;53.00;32.05;;;8.30;99.90;;;;;;4922152;29;20098;-77
2022/04/14 03:00:11;;;;;;;51.60;30.85;;;8.30;99.90;;;;;;4938727;29;20111;-77
2022/04/14 03:02:38;;;;;;;59.35;32.40;;;8.30;99.90;;;;;;4939002;29;20056;-76
2022/04/14 03:05:04;;;;;;;55.35;32.60;;;8.30;99.90;;;;;;4938957;29;20048;-77
2022/04/14 03:07:30;;;;;;;53.30;30.85;;;8.30;99.90;;;;;;4938958;29;20131;-77
2022/04/14 03:09:56;;;;;;;61.05;32.22;;;8.20;99.90;;;;;;4939117;29;20409;-77
2022/04/14 03:12:21;;;;;;;59.75;32.80;;;8.30;99.90;;;;;;4937582;29;20048;-77
2022/04/14 03:14:48;;;;;;;51.42;31.83;;;8.30;99.90;;;;;;4921694;29;20059;-77
2022/04/14 03:17:13;;;;;;;54.08;32.10;;;8.30;99.90;;;;;;4937902;29;20058;-77
2022/04/14 03:19:39;;;;;;;56.95;31.60;;;8.20;99.90;;;;;;4938649;29;20052;-77
2022/04/14 03:22:05;;;;;;;50.20;29.60;;;8.10;99.90;;;;;;4937287;29;20078;-76
2022/04/14 03:24:30;;;;;;;43.58;27.17;;;8.10;99.90;;;;;;4937329;29;20094;-77
2022/04/14 03:26:56;;;;;;;50.55;29.15;;;8.10;99.90;;;;;;4921392;29;20051;-77
2022/04/14 03:29:23;;;;;;;53.90;30.25;;;8.10;99.90;;;;;;4937266;29;20055;-77
2022/04/14 03:31:49;;;;;;;51.20;30.88;;;8.00;99.90;;;;;;4937550;29;20062;-77
2022/04/14 03:34:14;;;;;;;52.78;30.15;;;8.00;99.90;;;;;;4938715;29;20055;-77
2022/04/14 03:36:40;;;;;;;51.95;29.90;;;8.00;99.90;;;;;;4921415;29;20471;-77
2022/04/14 03:39:06;;;;;;;50.58;30.35;;;7.90;99.90;;;;;;4921490;29;20098;-77
2022/04/14 03:41:31;;;;;;;55.97;31.25;;;7.90;99.90;;;;;;4921150;29;20055;-77
2022/04/14 03:43:57;;;;;;;51.60;31.10;;;7.90;99.90;;;;;;4938291;29;20055;-77
2022/04/14 03:46:23;;;;;;;52.78;32.10;;;7.90;99.90;;;;;;4937296;29;20044;-77
2022/04/14 03:48:49;;;;;;;55.80;32.45;;;7.90;99.90;;;;;;4936957;29;20051;-77
2022/04/14 03:51:15;;;;;;;53.17;32.22;;;7.90;99.90;;;;;;4936778;29;20522;-77
2022/04/14 03:53:41;;;;;;;51.83;30.63;;;7.90;99.90;;;;;;4936755;29;20087;-77
2022/04/14 03:56:07;;;;;;;51.08;31.10;;;7.80;99.90;;;;;;4937992;29;20140;-77
2022/04/14 03:58:33;;;;;;;51.33;32.17;;;7.80;99.90;;;;;;4936333;29;20138;-77
2022/04/14 04:00:59;;;;;;;50.08;30.90;;;7.70;99.90;;;;;;4936072;29;20051;-77
2022/04/14 04:03:24;;;;;;;50.70;30.75;;;7.80;99.90;;;;;;4936721;29;20052;-77
2022/04/14 04:05:50;;;;;;;56.05;33.85;;;7.80;99.90;;;;;;4936514;29;20052;-77
2022/04/14 04:08:15;;;;;;;54.95;31.88;;;7.70;99.90;;;;;;4937905;29;20052;-77
2022/04/14 04:10:41;;;;;;;55.10;31.75;;;7.70;99.90;;;;;;4936759;29;20127;-77
2022/04/14 04:13:07;;;;;;;59.47;33.67;;;7.70;99.90;;;;;;4936738;29;20083;-77
2022/04/14 04:15:32;;;;;;;61.40;33.83;;;7.80;99.90;;;;;;4936754;29;20114;-77
2022/04/14 04:17:58;;;;;;;65.18;34.85;;;7.80;99.90;;;;;;4920320;29;20051;-77
2022/04/14 04:20:25;;;;;;;61.58;33.83;;;7.80;99.90;;;;;;4937596;29;20055;-77
2022/04/14 04:22:50;;;;;;;59.80;34.20;;;7.80;99.90;;;;;;4937607;29;20052;-77
2022/04/14 04:25:16;;;;;;;58.30;33.60;;;7.80;99.90;;;;;;4936294;29;20081;-77
2022/04/14 04:27:42;;;;;;;58.22;32.25;;;7.80;99.90;;;;;;4936238;29;20078;-77
2022/04/14 04:30:08;;;;;;;63.25;34.70;;;7.80;99.90;;;;;;4936202;29;20048;-77
2022/04/14 04:32:34;;;;;;;59.63;34.35;;;7.80;99.90;;;;;;4935985;29;20181;-77
2022/04/14 04:35:01;;;;;;;57.25;34.03;;;7.80;99.90;;;;;;4935961;29;20476;-77
2022/04/14 04:37:27;;;;;;;56.55;33.38;;;7.80;99.90;;;;;;4935347;29;20142;-77
2022/04/14 04:39:52;;;;;;;56.88;31.95;;;7.70;99.90;;;;;;4918806;29;20138;-77
2022/04/14 04:42:18;;;;;;;61.92;34.90;;;7.70;99.90;;;;;;4935594;29;20052;-77
2022/04/14 04:44:43;;;;;;;57.47;33.95;;;7.70;99.90;;;;;;4936038;29;20091;-78
2022/04/14 04:47:09;;;;;;;59.90;34.35;;;7.70;99.90;;;;;;4935931;29;20051;-77
2022/04/14 04:49:35;;;;;;;58.83;33.58;;;7.70;99.90;;;;;;4935885;29;20087;-77
2022/04/14 04:52:01;;;;;;;54.50;33.72;;;7.70;99.90;;;;;;4935591;29;20051;-77
2022/04/14 04:54:27;;;;;;;55.08;30.83;;;7.70;99.90;;;;;;4935189;29;20047;-77
2022/04/14 04:56:53;;;;;;;56.72;33.20;;;7.70;99.90;;;;;;4934788;29;20043;-77
2022/04/14 04:59:18;;;;;;;54.47;33.83;;;7.70;99.90;;;;;;4936034;29;20043;-77
2022/04/14 05:01:44;;;;;;;63.30;36.30;;;7.70;99.90;;;;;;4934719;29;20451;-77
2022/04/14 05:04:11;;;;;;;61.28;35.30;;;7.70;99.90;;;;;;4935387;29;20062;-77
2022/04/14 05:06:40;;;;;;;66.78;37.67;;;7.80;99.90;;;;;;4919541;29;20499;-77
2022/04/14 05:09:06;;;;;;;65.10;37.78;;;7.80;99.90;;;;;;4936606;29;20046;-77
2022/04/14 05:11:33;;;;;;;66.10;37.60;;;7.80;99.90;;;;;;4935365;29;20056;-77
2022/04/14 05:13:58;;;;;;;73.95;37.75;;;7.90;99.90;;;;;;4935208;29;20144;-77
2022/04/14 05:16:24;;;;;;;65.32;37.67;;;7.90;99.90;;;;;;4935398;29;20130;-77
2022/04/14 05:18:50;;;;;;;72.40;38.72;;;7.90;99.90;;;;;;4935129;29;20448;-77
2022/04/14 05:21:16;;;;;;;72.78;37.80;;;7.90;99.90;;;;;;4919361;29;20059;-77
2022/04/14 05:23:42;;;;;;;64.40;37.40;;;8.00;99.90;;;;;;4935133;29;20079;-77
2022/04/14 05:26:08;;;;;;;64.13;34.95;;;8.00;99.90;;;;;;4935079;29;20044;-77
2022/04/14 05:28:34;;;;;;;64.47;35.92;;;8.00;99.90;;;;;;4936227;29;20079;-77
2022/04/14 05:31:00;;;;;;;64.82;35.42;;;8.00;99.90;;;;;;4935042;29;20094;-77
2022/04/14 05:33:26;;;;;;;64.63;37.08;;;8.10;99.90;;;;;;4936273;29;20052;-77
2022/04/14 05:35:51;;;;;;;64.78;35.08;;;8.10;99.90;;;;;;4919137;29;20464;-77
2022/04/14 05:38:17;;;;;;;71.70;34.97;;;8.20;99.90;;;;;;4936188;29;20051;-77
2022/04/14 05:40:45;;;;;;;64.63;37.13;;;8.20;99.90;;;;;;4936309;29;20071;-77
2022/04/14 05:43:23;;;;;;;70.53;38.75;;;8.40;99.90;;;;;;4919229;29;20098;-77
2022/04/14 05:45:49;;;;;;;63.95;35.63;;;8.40;99.90;;;;;;4936279;29;20102;-78
2022/04/14 05:48:16;;;;;;;61.95;35.92;;;8.40;99.90;;;;;;4919143;29;20134;-77
2022/04/14 05:50:43;;;;;;;65.38;37.50;;;8.50;99.90;;;;;;4919212;29;20500;-77
2022/04/14 05:53:09;;;;;;;63.40;34.60;;;8.60;99.90;;;;;;4934868;29;20090;-77
2022/04/14 05:55:35;;;;;;;63.35;36.60;;;8.60;99.90;;;;;;4935165;29;20130;-77
2022/04/14 05:58:03;;;;;;;63.72;35.45;;;8.60;99.90;;;;;;4935823;29;20539;-77
2022/04/14 06:00:30;;;;;;;63.33;36.40;;;8.70;99.90;;;;;;4934552;29;20183;-77
2022/04/14 06:02:56;;;;;;;66.50;36.45;;;8.70;99.90;;;;;;4934806;29;20056;-77
2022/04/14 06:05:22;;;;;;;64.70;36.70;;;8.70;99.90;;;;;;4934916;29;20484;-77
2022/04/14 06:07:48;;;;;;;66.32;38.00;;;8.80;99.90;;;;;;4935976;29;20051;-77
2022/04/14 06:10:13;;;;;;;62.10;37.47;;;8.90;99.90;;;;;;4918949;29;20055;-77
2022/04/14 06:12:39;;;;;;;62.25;36.53;;;8.90;99.90;;;;;;4936136;29;20043;-77
2022/04/14 06:15:05;;;;;;;66.30;37.05;;;8.90;99.90;;;;;;4934649;29;20048;-77
2022/04/14 06:17:31;;;;;;;66.72;36.58;;;8.90;99.90;;;;;;4934777;29;20500;-77
2022/04/14 06:19:56;;;;;;;67.43;36.85;;;9.00;99.90;;;;;;4936004;29;20051;-77
2022/04/14 06:22:22;;;;;;;70.32;37.15;;;9.00;99.90;;;;;;4935217;29;20050;-77
2022/04/14 06:24:48;;;;;;;66.90;37.13;;;9.10;99.90;;;;;;4938425;29;20051;-78
2022/04/14 06:27:13;;;;;;;61.67;36.17;;;9.10;99.90;;;;;;4938448;29;20385;-78
2022/04/14 06:29:39;;;;;;;70.22;36.80;;;9.20;99.90;;;;;;4924511;29;20446;-77
2022/04/14 06:32:05;;;;;;;64.80;37.20;;;9.20;99.90;;;;;;4908609;29;20048;-77
2022/04/14 06:34:31;;;;;;;69.82;38.47;;;9.30;99.90;;;;;;4901170;29;20076;-79
2022/04/14 06:36:56;;;;;;;64.88;36.78;;;9.40;99.90;;;;;;4900174;29;20453;-77
2022/04/14 06:39:22;;;;;;;71.50;37.53;;;9.50;99.90;;;;;;4900127;29;20041;-77
2022/04/14 06:41:48;;;;;;;73.20;38.80;;;9.60;99.90;;;;;;4899619;29;20390;-77
2022/04/14 06:44:13;;;;;;;68.05;39.03;;;9.80;99.90;;;;;;4899904;29;20051;-77
2022/04/14 06:46:39;;;;;;;70.20;39.25;;;9.90;99.90;;;;;;4900072;29;20049;-77
2022/04/14 06:49:05;;;;;;;68.97;39.65;;;10.10;99.90;;;;;;4884420;29;20044;-77
2022/04/14 06:51:31;;;;;;;67.38;37.65;;;10.30;99.90;;;;;;4883882;29;20056;-78
2022/04/14 06:53:57;;;;;;;66.45;35.90;;;10.40;99.90;;;;;;4899650;29;20055;-78
2022/04/14 06:56:22;;;;;;;57.95;34.20;;;10.50;99.90;;;;;;4899695;29;20052;-76
2022/04/14 06:58:48;;;;;;;64.53;35.90;;;10.70;99.90;;;;;;4901109;29;20053;-76
2022/04/14 07:01:14;;;;;;;59.33;36.22;;;10.90;99.90;;;;;;4899352;29;20057;-76
2022/04/14 07:03:39;;;;;;;60.20;34.42;;;11.00;99.90;;;;;;4899407;29;20052;-78
2022/04/14 07:06:05;;;;;;;53.00;33.35;;;11.20;99.90;;;;;;4899740;29;20052;-76
2022/04/14 07:08:33;;;;;;;53.55;32.08;;;11.40;99.90;;;;;;4899623;29;20045;-75
2022/04/14 07:11:00;;;;;;;52.78;31.80;;;11.50;99.90;;;;;;4900838;29;20434;-77
2022/04/14 07:13:26;;;;;;;48.45;29.58;;;11.60;99.90;;;;;;4899510;29;20048;-76
2022/04/14 07:15:52;;;;;;;47.05;30.27;;;11.80;99.90;;;;;;4899233;29;20100;-76
2022/04/14 07:18:18;;;;;;;50.40;28.98;;;11.90;99.90;;;;;;4900527;29;20051;-76
2022/04/14 07:20:46;;;;;;;44.75;27.52;;;12.00;99.90;;;;;;4898388;29;20127;-76
2022/04/14 07:23:12;;;;;;;41.00;26.42;;;12.20;99.90;;;;;;4882433;29;20531;-76
2022/04/14 07:25:38;;;;;;;40.83;25.40;;;12.40;99.90;;;;;;4906574;29;20044;-77
2022/04/14 07:28:04;;;;;;;42.25;25.80;;;12.50;99.90;;;;;;4920982;29;20504;-76
2022/04/14 07:30:31;;;;;;;40.05;24.52;;;12.60;99.90;;;;;;4918277;29;20087;-76
2022/04/14 07:32:57;;;;;;;38.47;23.85;;;12.80;99.90;;;;;;4908523;29;20064;-75
2022/04/14 07:35:25;;;;;;;37.15;22.67;;;12.90;99.90;;;;;;4892711;29;20416;-76
2022/04/14 07:37:51;;;;;;;42.08;23.15;;;13.10;99.90;;;;;;4895872;29;20091;-76
2022/04/14 07:40:17;;;;;;;41.88;23.15;;;13.20;99.90;;;;;;4901777;29;20076;-76
2022/04/14 07:42:45;;;;;;;37.97;23.15;;;13.30;99.90;;;;;;4902040;29;20052;-76
2022/04/14 07:45:12;;;;;;;35.50;22.95;;;13.50;99.90;;;;;;4901849;29;20056;-76
2022/04/14 07:47:42;;;;;;;36.17;22.42;;;13.60;99.90;;;;;;4918737;29;20056;-76
2022/04/14 07:50:12;;;;;;;35.72;21.52;;;13.80;99.90;;;;;;4902163;29;20059;-75
2022/04/14 07:52:49;;;;;;;31.30;21.20;;;13.80;99.90;;;;;;4917557;29;20131;-76
2022/04/14 07:55:23;;;;;;;34.45;22.13;;;14.00;99.90;;;;;;4917052;29;20055;-76
2022/04/14 07:57:50;;;;;;;39.65;22.90;;;14.10;99.90;;;;;;4917575;29;20103;-76
2022/04/14 08:00:16;;;;;;;34.88;21.33;;;14.20;99.90;;;;;;4917351;29;20060;-76
2022/04/14 08:02:56;;;;;;;34.22;22.50;;;14.30;99.90;;;;;;4920482;29;20492;-76
2022/04/14 08:05:32;;;;;;;38.55;23.25;;;14.60;99.90;;;;;;4920856;29;20473;-75
2022/04/14 08:07:58;;;;;;;36.55;22.92;;;14.70;99.90;;;;;;4883123;29;20104;-75
2022/04/14 08:10:23;;;;;;;35.75;24.77;;;14.80;99.90;;;;;;4912943;29;20476;-90
2022/04/14 08:12:50;;;;;;;33.42;23.08;;;14.90;99.90;;;;;;4917015;29;20127;-89
2022/04/14 08:15:15;;;;;;;36.55;23.20;;;15.00;99.90;;;;;;4918017;29;20504;-91
2022/04/14 08:17:43;;;;;;;35.83;23.05;;;15.20;99.90;;;;;;4917247;29;20047;-94
2022/04/14 08:20:10;;;;;;;34.28;22.27;;;15.20;99.90;;;;;;4916968;29;20040;-76
2022/04/14 08:22:45;;;;;;;36.83;22.98;;;15.30;99.90;;;;;;4918348;29;20051;-76
2022/04/14 08:25:13;;;;;;;35.35;19.50;;;15.40;99.90;;;;;;4916158;29;20036;-76
2022/04/14 08:27:38;;;;;;;35.15;20.52;;;15.50;99.90;;;;;;4918294;29;20043;-76
2022/04/14 08:30:04;;;;;;;32.05;19.63;;;15.50;99.90;;;;;;4919518;29;20059;-76
2022/04/14 08:32:30;;;;;;;36.85;21.00;;;15.60;99.90;;;;;;4917336;29;20154;-75
2022/04/14 08:34:56;;;;;;;32.58;18.85;;;15.70;99.90;;;;;;4905106;29;20111;-75
2022/04/14 08:37:22;;;;;;;29.85;18.33;;;15.70;99.90;;;;;;4918489;29;20082;-76
2022/04/14 08:39:47;;;;;;;28.67;17.67;;;15.80;99.90;;;;;;4935331;29;20392;-75
2022/04/14 08:42:18;;;;;;;26.98;15.52;;;16.10;99.90;;;;;;4919318;29;20048;-76
2022/04/14 08:44:51;;;;;;;21.00;13.82;;;16.00;99.90;;;;;;4919488;29;20051;-76
2022/04/14 08:47:20;;;;;;;21.15;13.73;;;16.00;99.90;;;;;;4920104;29;20055;-76
2022/04/14 08:49:48;;;;;;;20.98;12.27;;;15.80;99.90;;;;;;4936744;29;20404;-82
2022/04/14 08:52:15;;;;;;;21.50;12.98;;;15.80;99.90;;;;;;4920110;29;20059;-84
2022/04/14 08:54:45;;;;;;;20.05;12.70;;;15.70;99.90;;;;;;4920134;29;20050;-85
2022/04/14 08:57:13;;;;;;;21.25;12.32;;;15.70;99.90;;;;;;4919969;29;20412;-86
2022/04/14 08:59:49;;;;;;;24.25;13.23;;;15.90;99.90;;;;;;4919582;29;20489;-88
2022/04/14 09:02:18;;;;;;;21.13;13.57;;;15.90;99.90;;;;;;4919695;29;20411;-86
2022/04/14 09:04:44;;;;;;;23.73;12.95;;;15.80;99.90;;;;;;4919587;29;20055;-84
2022/04/14 09:07:11;;;;;;;22.80;12.93;;;15.70;99.90;;;;;;4919690;29;20187;-86
2022/04/14 09:09:39;;;;;;;23.35;13.07;;;15.90;99.90;;;;;;4919748;29;20503;-89
2022/04/14 09:12:06;;;;;;;25.00;14.10;;;15.80;99.90;;;;;;4919365;29;20051;-85
2022/04/14 09:14:37;;;;;;;21.77;12.18;;;15.70;99.90;;;;;;4936282;29;20476;-88
2022/04/14 09:17:09;;;;;;;27.50;15.38;;;15.50;99.90;;;;;;4919211;29;20052;-86
2022/04/14 09:19:36;;;;;;;23.83;13.47;;;15.40;99.90;;;;;;4936220;29;20480;-76
2022/04/14 09:22:07;;;;;;;23.38;13.77;;;15.50;99.90;;;;;;4936466;29;20526;-75
2022/04/14 09:24:50;;;;;;;24.80;13.65;;;15.60;99.90;;;;;;4936398;29;20495;-75
2022/04/14 09:27:31;;;;;;;23.95;13.88;;;15.60;99.90;;;;;;4936621;29;20051;-75
2022/04/14 09:29:59;;;;;;;28.40;14.50;;;15.70;99.90;;;;;;4936307;29;20122;-76
2022/04/14 09:32:35;;;;;;;22.77;13.52;;;15.90;99.90;;;;;;4884503;29;20064;-77
2022/04/14 09:35:06;;;;;;;25.05;13.32;;;15.80;99.90;;;;;;4897531;29;20154;-77
2022/04/14 09:37:33;;;;;;;23.65;12.95;;;15.60;99.90;;;;;;4897589;29;20434;-77
2022/04/14 09:40:08;;;;;;;25.70;12.48;;;15.70;99.90;;;;;;4897203;29;20084;-77
2022/04/14 09:42:39;;;;;;;24.13;13.13;;;15.90;99.90;;;;;;4897350;29;20059;-76
2022/04/14 09:45:21;;;;;;;22.65;13.07;;;15.90;99.90;;;;;;4897080;29;20135;-77
2022/04/14 09:47:48;;;;;;;22.48;12.85;;;16.00;99.90;;;;;;4897313;29;20045;-77
2022/04/14 09:50:29;;;;;;;25.08;14.20;;;16.00;99.90;;;;;;4897380;29;20079;-76
2022/04/14 09:52:59;;;;;;;27.60;14.70;;;16.00;99.90;;;;;;4881723;29;20212;-76
2022/04/14 09:55:24;;;;;;;28.00;13.43;;;16.00;99.90;;;;;;4897571;29;20170;-77
2022/04/14 09:58:13;;;;;;;25.65;13.98;;;15.90;99.90;;;;;;4898760;29;20504;-76
2022/04/14 10:00:41;;;;;;;25.42;14.27;;;16.00;99.90;;;;;;4900696;29;20508;-77
2022/04/14 10:03:28;;;;;;;29.48;14.73;;;15.80;99.90;;;;;;4902296;29;20083;-76
2022/04/14 10:05:56;;;;;;;29.15;12.60;;;16.00;99.90;;;;;;4900864;29;20067;-76
2022/04/14 10:08:25;;;;;;;23.13;10.98;;;15.90;99.90;;;;;;4900745;29;20052;-77
2022/04/14 10:11:09;;;;;;;26.77;12.27;;;15.90;99.90;;;;;;4900902;29;20436;-77
2022/04/14 10:13:37;;;;;;;18.90;10.52;;;15.90;99.90;;;;;;4900847;29;20056;-77
2022/04/14 10:16:03;;;;;;;28.13;12.75;;;15.90;99.90;;;;;;4900612;29;20415;-77
2022/04/14 10:18:31;;;;;;;21.30;11.52;;;15.80;99.90;;;;;;4900950;29;20504;-76
2022/04/14 10:20:57;;;;;;;21.20;11.43;;;15.70;99.90;;;;;;4900415;29;20057;-76
2022/04/14 10:23:25;;;;;;;23.63;11.93;;;15.70;99.90;;;;;;4901914;29;20119;-77
2022/04/14 10:25:53;;;;;;;22.65;11.95;;;15.90;99.90;;;;;;4900749;29;20099;-77
2022/04/14 10:28:20;;;;;;;24.38;11.15;;;15.80;99.90;;;;;;4901791;29;20037;-77
2022/04/14 10:30:49;;;;;;;22.33;11.10;;;15.70;99.90;;;;;;4901511;29;20044;-77
2022/04/14 10:33:17;;;;;;;22.13;11.43;;;16.00;99.90;;;;;;4884873;29;20405;-77
2022/04/14 10:35:43;;;;;;;23.08;11.55;;;15.90;99.90;;;;;;4900197;29;20048;-76
2022/04/14 10:38:33;;;;;;;20.55;10.88;;;16.10;99.90;;;;;;4901378;29;20075;-77
2022/04/14 10:41:00;;;;;;;19.38;10.50;;;16.10;99.90;;;;;;4901514;29;20068;-77
2022/04/14 10:43:26;;;;;;;23.05;11.07;;;16.40;99.90;;;;;;4900063;29;20460;-77
2022/04/14 10:45:57;;;;;;;22.17;10.93;;;16.30;99.90;;;;;;4900041;29;20051;-77
2022/04/14 10:48:33;;;;;;;23.05;11.10;;;16.40;99.90;;;;;;4900419;29;20053;-77
2022/04/14 10:51:24;;;;;;;21.55;10.85;;;16.40;99.90;;;;;;4900333;29;20052;-77
2022/04/14 10:54:10;;;;;;;23.65;12.23;;;16.30;99.90;;;;;;4901436;29;20123;-76
2022/04/14 10:56:42;;;;;;;26.58;11.77;;;16.40;99.90;;;;;;4901314;29;20060;-76
2022/04/14 10:59:12;;;;;;;20.08;11.13;;;16.10;99.90;;;;;;4899911;29;20055;-76
2022/04/14 11:01:50;;;;;;;27.42;11.27;;;16.10;99.90;;;;;;4884078;29;20060;-77
2022/04/14 11:04:29;;;;;;;28.13;12.63;;;16.00;99.90;;;;;;4899606;29;20063;-76
2022/04/14 11:07:01;;;;;;;25.10;12.50;;;15.60;99.90;;;;;;4899740;29;20049;-76
2022/04/14 11:09:41;;;;;;;20.37;11.47;;;15.60;99.90;;;;;;4883976;29;20107;-77
2022/04/14 11:12:13;;;;;;;23.83;11.73;;;15.60;99.90;;;;;;4899904;29;20131;-76
2022/04/14 11:14:50;;;;;;;22.98;11.13;;;15.60;99.90;;;;;;4883899;29;20049;-76
2022/04/14 11:17:48;;;;;;;21.50;10.65;;;15.40;99.90;;;;;;4899913;29;20052;-76
2022/04/14 11:20:36;;;;;;;26.10;11.20;;;15.40;99.90;;;;;;4896539;29;20112;-77
2022/04/14 11:23:24;;;;;;;24.85;11.48;;;15.50;99.90;;;;;;4899730;29;20468;-77
2022/04/14 11:26:07;;;;;;;22.85;11.48;;;15.50;99.90;;;;;;4883866;29;20084;-76
2022/04/14 11:28:35;;;;;;;26.90;12.30;;;15.40;99.90;;;;;;4899309;29;20054;-76
2022/04/14 11:31:13;;;;;;;28.80;10.95;;;15.50;99.90;;;;;;4899252;29;20052;-77
2022/04/14 11:33:42;;;;;;;21.10;10.57;;;15.60;99.90;;;;;;4899310;29;20104;-76
2022/04/14 11:36:22;;;;;;;27.00;11.43;;;15.60;99.90;;;;;;4899435;29;20076;-76
2022/04/14 11:39:03;;;;;;;22.60;10.63;;;15.70;99.90;;;;;;4899115;29;20051;-76
2022/04/14 11:41:39;;;;;;;25.02;10.70;;;15.60;99.90;;;;;;4899027;29;20040;-76
2022/04/14 11:44:10;;;;;;;22.75;10.13;;;15.40;99.90;;;;;;4883700;29;20052;-76
2022/04/14 11:46:38;;;;;;;22.77;11.40;;;15.30;99.90;;;;;;4900447;29;20045;-76
2022/04/14 11:49:06;;;;;;;26.15;11.18;;;15.40;99.90;;;;;;4900319;29;20055;-76
2022/04/14 11:51:32;;;;;;;18.80;10.30;;;15.40;99.90;;;;;;4883767;29;20049;-76
2022/04/14 11:53:57;;;;;;;24.67;11.38;;;15.20;99.90;;;;;;4900109;29;20162;-76
2022/04/14 11:56:25;;;;;;;22.08;11.25;;;15.20;99.90;;;;;;4898733;29;20540;-76
2022/04/14 11:58:51;;;;;;;19.73;9.98;;;14.90;99.90;;;;;;4883344;29;20251;-76
2022/04/14 12:01:17;;;;;;;22.80;10.32;;;14.90;99.90;;;;;;4882828;29;20103;-76
2022/04/14 12:03:43;;;;;;;21.20;10.27;;;15.00;99.90;;;;;;4883031;29;20063;-76
2022/04/14 12:06:16;;;;;;;22.55;10.63;;;14.90;99.90;;;;;;4899957;29;20053;-76
2022/04/14 12:09:02;;;;;;;23.60;9.77;;;14.80;99.90;;;;;;4898380;29;20048;-76
2022/04/14 12:11:31;;;;;;;22.27;9.75;;;14.60;99.90;;;;;;4898274;29;20057;-76
2022/04/14 12:13:57;;;;;;;22.60;9.02;;;14.50;99.90;;;;;;4899368;29;20064;-76
2022/04/14 12:16:23;;;;;;;26.23;10.93;;;14.50;99.90;;;;;;4882729;29;20059;-76
2022/04/14 12:18:51;;;;;;;23.08;9.90;;;14.30;99.90;;;;;;4898355;29;20052;-76
2022/04/14 12:21:22;;;;;;;23.05;9.40;;;14.30;99.90;;;;;;4881893;29;20048;-76
2022/04/14 12:23:49;;;;;;;22.20;9.68;;;14.30;99.90;;;;;;4883016;29;20193;-76
2022/04/14 12:26:16;;;;;;;21.42;9.30;;;14.20;99.90;;;;;;4882940;29;20382;-76
2022/04/14 12:28:42;;;;;;;23.42;9.05;;;14.10;99.90;;;;;;4898130;29;20478;-76
2022/04/14 12:31:11;;;;;;;22.60;8.90;;;14.20;99.90;;;;;;4899436;29;20044;-76
2022/04/14 12:33:37;;;;;;;22.25;9.23;;;14.10;99.90;;;;;;4883032;29;20072;-76
2022/04/14 12:36:08;;;;;;;17.58;7.72;;;14.10;99.90;;;;;;4882450;29;20553;-76
2022/04/14 12:38:44;;;;;;;20.48;8.48;;;14.10;99.90;;;;;;4899528;29;20044;-76